sensor_id;sensor_type;location;lat;lon;timestamp;P1;durP1;ratioP1;P2;durP2;ratioP2
19004;SDS011;9635;52.078;8.648;2023-05-07T00:04:00;24.48;;;18.90;;
19004;SDS011;9635;52.078;8.648;2023-05-07T00:09:03;25.27;;;18.80;;
19004;SDS011;9635;52.078;8.648;2023-05-07T00:14:08;26.08;;;19.85;;
19004;SDS011;9635;52.078;8.648;2023-05-07T00:19:10;28.73;;;20.75;;
19004;SDS011;9635;52.078;8.648;2023-05-07T00:24:13;27.40;;;19.33;;
19004;SDS011;9635;52.078;8.648;2023-05-07T00:29:18;26.20;;;18.40;;
19004;SDS011;9635;52.078;8.648;2023-05-07T00:34:21;30.35;;;18.00;;
19004;SDS011;9635;52.078;8.648;2023-05-07T00:39:24;30.50;;;18.70;;
19004;SDS011;9635;52.078;8.648;2023-05-07T00:44:28;30.73;;;20.02;;
19004;SDS011;9635;52.078;8.648;2023-05-07T00:49:34;26.70;;;19.23;;
19004;SDS011;9635;52.078;8.648;2023-05-07T00:54:40;31.65;;;20.02;;
19004;SDS011;9635;52.078;8.648;2023-05-07T00:59:45;26.38;;;19.10;;
19004;SDS011;9635;52.078;8.648;2023-05-07T01:04:48;28.17;;;18.83;;
19004;SDS011;9635;52.078;8.648;2023-05-07T01:09:51;28.10;;;19.83;;
19004;SDS011;9635;52.078;8.648;2023-05-07T01:14:56;29.92;;;20.05;;
19004;SDS011;9635;52.078;8.648;2023-05-07T01:19:59;28.73;;;20.90;;
19004;SDS011;9635;52.078;8.648;2023-05-07T01:25:04;25.85;;;19.77;;
19004;SDS011;9635;52.078;8.648;2023-05-07T01:30:10;30.08;;;19.58;;
19004;SDS011;9635;52.078;8.648;2023-05-07T01:35:16;30.77;;;20.05;;
19004;SDS011;9635;52.078;8.648;2023-05-07T01:40:23;31.33;;;21.45;;
19004;SDS011;9635;52.078;8.648;2023-05-07T01:45:27;28.27;;;20.23;;
19004;SDS011;9635;52.078;8.648;2023-05-07T01:50:31;30.20;;;21.42;;
19004;SDS011;9635;52.078;8.648;2023-05-07T01:55:36;30.40;;;21.48;;
19004;SDS011;9635;52.078;8.648;2023-05-07T02:00:39;30.75;;;21.70;;
19004;SDS011;9635;52.078;8.648;2023-05-07T02:05:42;30.90;;;21.83;;
19004;SDS011;9635;52.078;8.648;2023-05-07T02:10:54;30.48;;;21.10;;
19004;SDS011;9635;52.078;8.648;2023-05-07T02:15:58;33.38;;;22.35;;
19004;SDS011;9635;52.078;8.648;2023-05-07T02:21:02;33.22;;;22.10;;
19004;SDS011;9635;52.078;8.648;2023-05-07T02:26:06;31.73;;;21.42;;
19004;SDS011;9635;52.078;8.648;2023-05-07T02:31:09;30.40;;;22.48;;
19004;SDS011;9635;52.078;8.648;2023-05-07T02:36:12;30.67;;;21.02;;
19004;SDS011;9635;52.078;8.648;2023-05-07T02:41:26;31.50;;;21.42;;
19004;SDS011;9635;52.078;8.648;2023-05-07T02:46:29;34.50;;;22.90;;
19004;SDS011;9635;52.078;8.648;2023-05-07T02:51:41;34.83;;;23.40;;
19004;SDS011;9635;52.078;8.648;2023-05-07T02:56:52;31.13;;;22.48;;
19004;SDS011;9635;52.078;8.648;2023-05-07T03:01:54;32.03;;;22.55;;
19004;SDS011;9635;52.078;8.648;2023-05-07T03:06:58;34.28;;;24.27;;
19004;SDS011;9635;52.078;8.648;2023-05-07T03:12:02;35.63;;;23.75;;
19004;SDS011;9635;52.078;8.648;2023-05-07T03:17:05;31.73;;;22.63;;
19004;SDS011;9635;52.078;8.648;2023-05-07T03:22:08;34.60;;;23.13;;
19004;SDS011;9635;52.078;8.648;2023-05-07T03:27:12;35.25;;;23.33;;
19004;SDS011;9635;52.078;8.648;2023-05-07T03:32:16;32.35;;;23.20;;
19004;SDS011;9635;52.078;8.648;2023-05-07T03:37:19;33.70;;;23.35;;
19004;SDS011;9635;52.078;8.648;2023-05-07T03:42:24;35.78;;;24.35;;
19004;SDS011;9635;52.078;8.648;2023-05-07T03:47:27;33.92;;;23.90;;
19004;SDS011;9635;52.078;8.648;2023-05-07T03:52:30;36.35;;;22.60;;
19004;SDS011;9635;52.078;8.648;2023-05-07T03:57:38;36.67;;;24.52;;
19004;SDS011;9635;52.078;8.648;2023-05-07T04:02:41;35.70;;;24.38;;
19004;SDS011;9635;52.078;8.648;2023-05-07T04:07:44;35.63;;;24.13;;
19004;SDS011;9635;52.078;8.648;2023-05-07T04:12:52;35.50;;;24.27;;
19004;SDS011;9635;52.078;8.648;2023-05-07T04:17:56;34.22;;;23.85;;
19004;SDS011;9635;52.078;8.648;2023-05-07T04:22:59;37.30;;;25.83;;
19004;SDS011;9635;52.078;8.648;2023-05-07T04:28:05;36.50;;;24.38;;
19004;SDS011;9635;52.078;8.648;2023-05-07T04:33:08;38.20;;;27.85;;
19004;SDS011;9635;52.078;8.648;2023-05-07T04:38:14;42.13;;;28.02;;
19004;SDS011;9635;52.078;8.648;2023-05-07T04:43:19;37.35;;;24.98;;
19004;SDS011;9635;52.078;8.648;2023-05-07T04:48:24;38.92;;;27.40;;
19004;SDS011;9635;52.078;8.648;2023-05-07T04:53:28;41.35;;;26.30;;
19004;SDS011;9635;52.078;8.648;2023-05-07T04:58:33;38.55;;;26.33;;
19004;SDS011;9635;52.078;8.648;2023-05-07T05:03:36;42.05;;;27.35;;
19004;SDS011;9635;52.078;8.648;2023-05-07T05:08:41;37.95;;;25.15;;
19004;SDS011;9635;52.078;8.648;2023-05-07T05:13:46;41.20;;;26.35;;
19004;SDS011;9635;52.078;8.648;2023-05-07T05:18:53;39.60;;;26.52;;
19004;SDS011;9635;52.078;8.648;2023-05-07T05:23:56;42.47;;;27.08;;
19004;SDS011;9635;52.078;8.648;2023-05-07T05:29:01;39.97;;;26.23;;
19004;SDS011;9635;52.078;8.648;2023-05-07T05:34:05;41.75;;;25.55;;
19004;SDS011;9635;52.078;8.648;2023-05-07T05:39:09;35.75;;;24.77;;
19004;SDS011;9635;52.078;8.648;2023-05-07T05:44:13;38.38;;;24.50;;
19004;SDS011;9635;52.078;8.648;2023-05-07T05:49:17;39.42;;;24.80;;
19004;SDS011;9635;52.078;8.648;2023-05-07T05:54:20;36.90;;;24.40;;
19004;SDS011;9635;52.078;8.648;2023-05-07T05:59:24;39.35;;;23.88;;
19004;SDS011;9635;52.078;8.648;2023-05-07T06:04:28;37.25;;;23.92;;
19004;SDS011;9635;52.078;8.648;2023-05-07T06:09:31;31.98;;;23.45;;
19004;SDS011;9635;52.078;8.648;2023-05-07T06:14:36;36.38;;;24.00;;
19004;SDS011;9635;52.078;8.648;2023-05-07T06:19:39;35.55;;;22.17;;
19004;SDS011;9635;52.078;8.648;2023-05-07T06:24:43;30.52;;;21.60;;
19004;SDS011;9635;52.078;8.648;2023-05-07T06:29:48;30.90;;;21.02;;
19004;SDS011;9635;52.078;8.648;2023-05-07T06:34:52;33.67;;;20.67;;
19004;SDS011;9635;52.078;8.648;2023-05-07T06:39:55;32.45;;;20.85;;
19004;SDS011;9635;52.078;8.648;2023-05-07T06:45:02;30.40;;;20.95;;
19004;SDS011;9635;52.078;8.648;2023-05-07T06:50:06;32.50;;;21.85;;
19004;SDS011;9635;52.078;8.648;2023-05-07T06:55:12;30.35;;;19.90;;
19004;SDS011;9635;52.078;8.648;2023-05-07T07:00:17;26.20;;;18.60;;
19004;SDS011;9635;52.078;8.648;2023-05-07T07:05:25;27.38;;;19.52;;
19004;SDS011;9635;52.078;8.648;2023-05-07T07:10:29;27.77;;;19.98;;
19004;SDS011;9635;52.078;8.648;2023-05-07T07:15:33;28.13;;;17.00;;
19004;SDS011;9635;52.078;8.648;2023-05-07T07:20:36;24.20;;;17.63;;
19004;SDS011;9635;52.078;8.648;2023-05-07T07:25:41;29.27;;;17.27;;
19004;SDS011;9635;52.078;8.648;2023-05-07T07:30:46;23.70;;;16.92;;
19004;SDS011;9635;52.078;8.648;2023-05-07T07:35:50;20.20;;;14.77;;
19004;SDS011;9635;52.078;8.648;2023-05-07T07:40:53;18.30;;;13.63;;
19004;SDS011;9635;52.078;8.648;2023-05-07T07:45:59;21.50;;;14.60;;
19004;SDS011;9635;52.078;8.648;2023-05-07T07:51:02;18.63;;;14.23;;
19004;SDS011;9635;52.078;8.648;2023-05-07T07:56:06;18.85;;;13.85;;
19004;SDS011;9635;52.078;8.648;2023-05-07T08:01:11;20.73;;;14.07;;
19004;SDS011;9635;52.078;8.648;2023-05-07T08:06:15;18.30;;;13.40;;
19004;SDS011;9635;52.078;8.648;2023-05-07T08:11:19;18.20;;;13.07;;
19004;SDS011;9635;52.078;8.648;2023-05-07T08:16:24;17.38;;;12.88;;
19004;SDS011;9635;52.078;8.648;2023-05-07T08:21:27;16.70;;;12.43;;
19004;SDS011;9635;52.078;8.648;2023-05-07T08:26:32;16.05;;;12.60;;
19004;SDS011;9635;52.078;8.648;2023-05-07T08:31:38;18.63;;;11.82;;
19004;SDS011;9635;52.078;8.648;2023-05-07T08:36:41;15.07;;;11.77;;
19004;SDS011;9635;52.078;8.648;2023-05-07T08:41:48;17.33;;;12.18;;
19004;SDS011;9635;52.078;8.648;2023-05-07T08:47:01;16.35;;;11.50;;
19004;SDS011;9635;52.078;8.648;2023-05-07T08:52:06;15.52;;;11.68;;
19004;SDS011;9635;52.078;8.648;2023-05-07T08:57:11;12.70;;;11.02;;
19004;SDS011;9635;52.078;8.648;2023-05-07T09:02:15;14.30;;;11.98;;
19004;SDS011;9635;52.078;8.648;2023-05-07T09:07:20;14.48;;;11.73;;
19004;SDS011;9635;52.078;8.648;2023-05-07T09:12:23;13.50;;;10.98;;
19004;SDS011;9635;52.078;8.648;2023-05-07T09:17:27;12.88;;;10.98;;
19004;SDS011;9635;52.078;8.648;2023-05-07T09:22:31;12.35;;;10.80;;
19004;SDS011;9635;52.078;8.648;2023-05-07T09:27:38;13.82;;;10.27;;
19004;SDS011;9635;52.078;8.648;2023-05-07T09:32:43;16.20;;;11.95;;
19004;SDS011;9635;52.078;8.648;2023-05-07T09:37:52;12.48;;;10.15;;
19004;SDS011;9635;52.078;8.648;2023-05-07T09:42:56;14.68;;;10.02;;
19004;SDS011;9635;52.078;8.648;2023-05-07T09:48:14;13.43;;;11.00;;
19004;SDS011;9635;52.078;8.648;2023-05-07T09:53:22;12.00;;;10.38;;
19004;SDS011;9635;52.078;8.648;2023-05-07T09:58:27;12.55;;;10.23;;
19004;SDS011;9635;52.078;8.648;2023-05-07T10:03:32;11.90;;;9.27;;
19004;SDS011;9635;52.078;8.648;2023-05-07T10:08:39;11.27;;;8.57;;
19004;SDS011;9635;52.078;8.648;2023-05-07T10:13:42;11.57;;;9.23;;
19004;SDS011;9635;52.078;8.648;2023-05-07T10:18:47;11.18;;;8.82;;
19004;SDS011;9635;52.078;8.648;2023-05-07T10:23:58;13.75;;;9.82;;
19004;SDS011;9635;52.078;8.648;2023-05-07T10:29:05;14.82;;;11.38;;
19004;SDS011;9635;52.078;8.648;2023-05-07T10:34:16;12.80;;;8.57;;
19004;SDS011;9635;52.078;8.648;2023-05-07T10:39:22;13.70;;;10.60;;
19004;SDS011;9635;52.078;8.648;2023-05-07T10:44:26;12.23;;;9.10;;
19004;SDS011;9635;52.078;8.648;2023-05-07T10:49:36;8.43;;;7.55;;
19004;SDS011;9635;52.078;8.648;2023-05-07T10:54:42;7.97;;;6.95;;
19004;SDS011;9635;52.078;8.648;2023-05-07T10:59:48;9.30;;;7.63;;
19004;SDS011;9635;52.078;8.648;2023-05-07T11:10:50;9.30;;;7.10;;
19004;SDS011;9635;52.078;8.648;2023-05-07T11:21:36;7.47;;;6.68;;
19004;SDS011;9635;52.078;8.648;2023-05-07T11:26:49;8.98;;;7.15;;
19004;SDS011;9635;52.078;8.648;2023-05-07T11:31:55;7.60;;;5.57;;
19004;SDS011;9635;52.078;8.648;2023-05-07T11:37:05;6.97;;;6.28;;
19004;SDS011;9635;52.078;8.648;2023-05-07T11:42:27;6.70;;;5.93;;
19004;SDS011;9635;52.078;8.648;2023-05-07T11:47:30;7.35;;;6.25;;
19004;SDS011;9635;52.078;8.648;2023-05-07T11:52:35;5.97;;;4.97;;
19004;SDS011;9635;52.078;8.648;2023-05-07T11:57:39;7.38;;;5.15;;
19004;SDS011;9635;52.078;8.648;2023-05-07T12:02:43;6.13;;;5.50;;
19004;SDS011;9635;52.078;8.648;2023-05-07T12:07:49;5.53;;;5.03;;
19004;SDS011;9635;52.078;8.648;2023-05-07T12:12:58;5.75;;;5.05;;
19004;SDS011;9635;52.078;8.648;2023-05-07T12:18:01;5.78;;;5.22;;
19004;SDS011;9635;52.078;8.648;2023-05-07T12:23:05;5.38;;;4.88;;
19004;SDS011;9635;52.078;8.648;2023-05-07T12:28:12;5.35;;;4.80;;
19004;SDS011;9635;52.078;8.648;2023-05-07T12:33:16;7.00;;;4.65;;
19004;SDS011;9635;52.078;8.648;2023-05-07T12:38:21;6.72;;;5.30;;
19004;SDS011;9635;52.078;8.648;2023-05-07T12:43:25;6.15;;;5.00;;
19004;SDS011;9635;52.078;8.648;2023-05-07T12:48:29;6.03;;;5.50;;
19004;SDS011;9635;52.078;8.648;2023-05-07T12:53:33;5.80;;;4.88;;
19004;SDS011;9635;52.078;8.648;2023-05-07T12:58:43;5.82;;;5.25;;
19004;SDS011;9635;52.078;8.648;2023-05-07T13:03:48;6.95;;;5.25;;
19004;SDS011;9635;52.078;8.648;2023-05-07T13:08:53;5.68;;;4.72;;
19004;SDS011;9635;52.078;8.648;2023-05-07T13:13:56;7.03;;;5.78;;
19004;SDS011;9635;52.078;8.648;2023-05-07T13:18:59;8.80;;;7.70;;
19004;SDS011;9635;52.078;8.648;2023-05-07T13:24:03;7.30;;;6.45;;
19004;SDS011;9635;52.078;8.648;2023-05-07T13:29:06;33.38;;;16.45;;
19004;SDS011;9635;52.078;8.648;2023-05-07T13:34:09;6.63;;;5.80;;
19004;SDS011;9635;52.078;8.648;2023-05-07T13:39:13;9.50;;;7.05;;
19004;SDS011;9635;52.078;8.648;2023-05-07T13:44:16;7.15;;;6.40;;
19004;SDS011;9635;52.078;8.648;2023-05-07T13:49:18;7.30;;;5.60;;
19004;SDS011;9635;52.078;8.648;2023-05-07T13:54:23;8.90;;;6.80;;
19004;SDS011;9635;52.078;8.648;2023-05-07T13:59:25;10.20;;;7.15;;
19004;SDS011;9635;52.078;8.648;2023-05-07T14:04:28;7.13;;;6.15;;
19004;SDS011;9635;52.078;8.648;2023-05-07T14:09:34;6.57;;;5.93;;
19004;SDS011;9635;52.078;8.648;2023-05-07T14:14:36;6.45;;;5.80;;
19004;SDS011;9635;52.078;8.648;2023-05-07T14:19:39;6.32;;;5.72;;
19004;SDS011;9635;52.078;8.648;2023-05-07T14:24:43;6.88;;;6.18;;
19004;SDS011;9635;52.078;8.648;2023-05-07T14:29:53;9.05;;;6.32;;
19004;SDS011;9635;52.078;8.648;2023-05-07T14:34:56;6.55;;;5.88;;
19004;SDS011;9635;52.078;8.648;2023-05-07T14:40:00;6.93;;;4.97;;
19004;SDS011;9635;52.078;8.648;2023-05-07T14:45:04;8.82;;;6.93;;
19004;SDS011;9635;52.078;8.648;2023-05-07T14:50:08;7.20;;;6.50;;
19004;SDS011;9635;52.078;8.648;2023-05-07T14:55:13;9.85;;;5.88;;
19004;SDS011;9635;52.078;8.648;2023-05-07T15:00:16;6.75;;;6.05;;
19004;SDS011;9635;52.078;8.648;2023-05-07T15:05:19;5.43;;;4.93;;
19004;SDS011;9635;52.078;8.648;2023-05-07T15:10:23;8.05;;;6.22;;
19004;SDS011;9635;52.078;8.648;2023-05-07T15:15:26;9.05;;;6.07;;
19004;SDS011;9635;52.078;8.648;2023-05-07T15:20:29;9.68;;;6.75;;
19004;SDS011;9635;52.078;8.648;2023-05-07T15:25:34;8.23;;;6.90;;
19004;SDS011;9635;52.078;8.648;2023-05-07T15:30:36;7.53;;;6.60;;
19004;SDS011;9635;52.078;8.648;2023-05-07T15:35:39;8.90;;;6.10;;
19004;SDS011;9635;52.078;8.648;2023-05-07T15:40:44;7.22;;;6.53;;
19004;SDS011;9635;52.078;8.648;2023-05-07T15:45:46;6.97;;;6.28;;
19004;SDS011;9635;52.078;8.648;2023-05-07T15:50:49;7.35;;;6.40;;
19004;SDS011;9635;52.078;8.648;2023-05-07T15:55:54;7.63;;;6.78;;
19004;SDS011;9635;52.078;8.648;2023-05-07T16:00:56;8.32;;;6.68;;
19004;SDS011;9635;52.078;8.648;2023-05-07T16:05:59;7.70;;;6.57;;
19004;SDS011;9635;52.078;8.648;2023-05-07T16:11:04;7.68;;;6.93;;
19004;SDS011;9635;52.078;8.648;2023-05-07T16:16:06;8.05;;;7.32;;
19004;SDS011;9635;52.078;8.648;2023-05-07T16:21:09;7.40;;;6.38;;
19004;SDS011;9635;52.078;8.648;2023-05-07T16:26:14;8.55;;;6.93;;
19004;SDS011;9635;52.078;8.648;2023-05-07T16:31:18;12.15;;;10.95;;
19004;SDS011;9635;52.078;8.648;2023-05-07T16:36:21;14.02;;;12.63;;
19004;SDS011;9635;52.078;8.648;2023-05-07T16:41:25;9.40;;;8.45;;
19004;SDS011;9635;52.078;8.648;2023-05-07T16:46:28;9.63;;;8.63;;
19004;SDS011;9635;52.078;8.648;2023-05-07T16:51:32;9.40;;;8.45;;
19004;SDS011;9635;52.078;8.648;2023-05-07T16:56:36;10.82;;;8.93;;
19004;SDS011;9635;52.078;8.648;2023-05-07T17:01:39;10.40;;;9.02;;
19004;SDS011;9635;52.078;8.648;2023-05-07T17:06:43;11.55;;;8.93;;
19004;SDS011;9635;52.078;8.648;2023-05-07T17:11:47;10.27;;;9.27;;
19004;SDS011;9635;52.078;8.648;2023-05-07T17:16:50;13.55;;;9.90;;
19004;SDS011;9635;52.078;8.648;2023-05-07T17:21:53;11.75;;;10.52;;
19004;SDS011;9635;52.078;8.648;2023-05-07T17:26:57;13.90;;;12.48;;
19004;SDS011;9635;52.078;8.648;2023-05-07T17:32:00;11.32;;;10.18;;
19004;SDS011;9635;52.078;8.648;2023-05-07T17:37:02;11.68;;;10.20;;
19004;SDS011;9635;52.078;8.648;2023-05-07T17:42:07;11.82;;;10.63;;
19004;SDS011;9635;52.078;8.648;2023-05-07T17:47:09;12.70;;;11.38;;
19004;SDS011;9635;52.078;8.648;2023-05-07T17:52:14;13.80;;;11.93;;
19004;SDS011;9635;52.078;8.648;2023-05-07T17:57:19;14.73;;;12.23;;
19004;SDS011;9635;52.078;8.648;2023-05-07T18:02:22;12.65;;;11.35;;
19004;SDS011;9635;52.078;8.648;2023-05-07T18:07:25;13.82;;;12.10;;
19004;SDS011;9635;52.078;8.648;2023-05-07T18:12:29;14.30;;;12.88;;
19004;SDS011;9635;52.078;8.648;2023-05-07T18:17:32;15.15;;;12.80;;
19004;SDS011;9635;52.078;8.648;2023-05-07T18:22:35;16.38;;;13.55;;
19004;SDS011;9635;52.078;8.648;2023-05-07T18:27:39;17.17;;;14.05;;
19004;SDS011;9635;52.078;8.648;2023-05-07T18:32:42;16.13;;;14.10;;
19004;SDS011;9635;52.078;8.648;2023-05-07T18:37:45;16.60;;;14.30;;
19004;SDS011;9635;52.078;8.648;2023-05-07T18:42:49;17.45;;;14.40;;
19004;SDS011;9635;52.078;8.648;2023-05-07T18:47:52;15.82;;;14.15;;
19004;SDS011;9635;52.078;8.648;2023-05-07T18:52:55;17.55;;;14.70;;
19004;SDS011;9635;52.078;8.648;2023-05-07T18:57:59;17.60;;;14.75;;
19004;SDS011;9635;52.078;8.648;2023-05-07T19:03:02;17.77;;;15.00;;
19004;SDS011;9635;52.078;8.648;2023-05-07T19:08:06;18.73;;;15.85;;
19004;SDS011;9635;52.078;8.648;2023-05-07T19:13:10;17.60;;;15.50;;
19004;SDS011;9635;52.078;8.648;2023-05-07T19:18:13;18.10;;;15.95;;
19004;SDS011;9635;52.078;8.648;2023-05-07T19:23:16;19.42;;;16.98;;
19004;SDS011;9635;52.078;8.648;2023-05-07T19:28:20;17.77;;;15.88;;
19004;SDS011;9635;52.078;8.648;2023-05-07T19:33:24;18.50;;;15.57;;
19004;SDS011;9635;52.078;8.648;2023-05-07T19:38:27;18.55;;;16.23;;
19004;SDS011;9635;52.078;8.648;2023-05-07T19:43:31;21.27;;;16.52;;
19004;SDS011;9635;52.078;8.648;2023-05-07T19:48:36;21.95;;;15.65;;
19004;SDS011;9635;52.078;8.648;2023-05-07T19:53:39;19.15;;;16.75;;
19004;SDS011;9635;52.078;8.648;2023-05-07T19:58:43;18.65;;;16.17;;
19004;SDS011;9635;52.078;8.648;2023-05-07T20:03:46;19.50;;;16.48;;
19004;SDS011;9635;52.078;8.648;2023-05-07T20:08:49;18.50;;;16.33;;
19004;SDS011;9635;52.078;8.648;2023-05-07T20:13:53;20.02;;;16.40;;
19004;SDS011;9635;52.078;8.648;2023-05-07T20:18:56;19.02;;;16.17;;
19004;SDS011;9635;52.078;8.648;2023-05-07T20:23:59;18.98;;;16.25;;
19004;SDS011;9635;52.078;8.648;2023-05-07T20:29:03;20.95;;;16.67;;
19004;SDS011;9635;52.078;8.648;2023-05-07T20:34:06;17.10;;;14.48;;
19004;SDS011;9635;52.078;8.648;2023-05-07T20:39:09;17.88;;;14.30;;
19004;SDS011;9635;52.078;8.648;2023-05-07T20:44:16;16.75;;;14.52;;
19004;SDS011;9635;52.078;8.648;2023-05-07T20:49:19;21.17;;;14.38;;
19004;SDS011;9635;52.078;8.648;2023-05-07T20:54:23;15.75;;;13.80;;
19004;SDS011;9635;52.078;8.648;2023-05-07T20:59:29;16.13;;;14.38;;
19004;SDS011;9635;52.078;8.648;2023-05-07T21:04:35;16.55;;;14.35;;
19004;SDS011;9635;52.078;8.648;2023-05-07T21:09:38;19.05;;;15.07;;
19004;SDS011;9635;52.078;8.648;2023-05-07T21:14:42;16.13;;;14.25;;
19004;SDS011;9635;52.078;8.648;2023-05-07T21:19:45;17.92;;;13.48;;
19004;SDS011;9635;52.078;8.648;2023-05-07T21:24:48;16.38;;;14.18;;
19004;SDS011;9635;52.078;8.648;2023-05-07T21:29:52;19.70;;;14.50;;
19004;SDS011;9635;52.078;8.648;2023-05-07T21:34:58;16.45;;;14.10;;
19004;SDS011;9635;52.078;8.648;2023-05-07T21:40:02;14.85;;;12.98;;
19004;SDS011;9635;52.078;8.648;2023-05-07T21:45:07;15.68;;;13.68;;
19004;SDS011;9635;52.078;8.648;2023-05-07T21:50:10;14.68;;;12.95;;
19004;SDS011;9635;52.078;8.648;2023-05-07T21:55:14;15.23;;;13.02;;
19004;SDS011;9635;52.078;8.648;2023-05-07T22:00:20;14.45;;;12.85;;
19004;SDS011;9635;52.078;8.648;2023-05-07T22:05:23;13.98;;;12.57;;
19004;SDS011;9635;52.078;8.648;2023-05-07T22:10:26;13.93;;;12.00;;
19004;SDS011;9635;52.078;8.648;2023-05-07T22:15:31;14.20;;;11.80;;
19004;SDS011;9635;52.078;8.648;2023-05-07T22:20:42;12.63;;;11.25;;
19004;SDS011;9635;52.078;8.648;2023-05-07T22:25:45;13.23;;;11.35;;
19004;SDS011;9635;52.078;8.648;2023-05-07T22:30:50;15.32;;;13.52;;
19004;SDS011;9635;52.078;8.648;2023-05-07T22:35:53;14.63;;;12.02;;
19004;SDS011;9635;52.078;8.648;2023-05-07T22:40:55;13.30;;;11.48;;
19004;SDS011;9635;52.078;8.648;2023-05-07T22:46:01;14.13;;;11.82;;
19004;SDS011;9635;52.078;8.648;2023-05-07T22:51:04;15.93;;;12.52;;
19004;SDS011;9635;52.078;8.648;2023-05-07T22:56:07;14.52;;;12.35;;
19004;SDS011;9635;52.078;8.648;2023-05-07T23:01:12;12.68;;;11.38;;
19004;SDS011;9635;52.078;8.648;2023-05-07T23:06:16;14.02;;;11.68;;
19004;SDS011;9635;52.078;8.648;2023-05-07T23:11:19;12.88;;;11.27;;
19004;SDS011;9635;52.078;8.648;2023-05-07T23:16:23;15.05;;;10.55;;
19004;SDS011;9635;52.078;8.648;2023-05-07T23:21:26;12.32;;;11.00;;
19004;SDS011;9635;52.078;8.648;2023-05-07T23:26:29;11.70;;;10.45;;
19004;SDS011;9635;52.078;8.648;2023-05-07T23:31:33;11.40;;;9.95;;
19004;SDS011;9635;52.078;8.648;2023-05-07T23:36:36;11.90;;;9.60;;
19004;SDS011;9635;52.078;8.648;2023-05-07T23:41:39;11.70;;;9.82;;
19004;SDS011;9635;52.078;8.648;2023-05-07T23:46:43;11.68;;;9.65;;
19004;SDS011;9635;52.078;8.648;2023-05-07T23:51:46;11.10;;;9.68;;
19004;SDS011;9635;52.078;8.648;2023-05-07T23:56:49;10.52;;;9.35;;
